createdAt,value
2018-12-30T00:00:01.969Z,99308.59
2018-12-30T00:02:33.926Z,99300.81
2018-12-30T00:05:05.288Z,99320.75
2018-12-30T00:07:36.532Z,99320.70
2018-12-30T00:10:12.097Z,99335.78
2018-12-30T00:12:44.956Z,99352.59
2018-12-30T00:15:15.606Z,99347.33
2018-12-30T00:18:01.797Z,99352.89
2018-12-30T00:20:34.610Z,99370.43
2018-12-30T00:23:14.511Z,99378.88
2018-12-30T00:25:50.391Z,99388.35
2018-12-30T00:28:23.991Z,99385.86
2018-12-30T00:30:57.324Z,99363.23
2018-12-30T00:33:27.817Z,99366.63
2018-12-30T00:36:00.568Z,99361.28
2018-12-30T00:38:33.169Z,99353.09
2018-12-30T00:41:05.260Z,99339.72
2018-12-30T00:43:35.914Z,99334.11
2018-12-30T00:46:08.975Z,99318.45
2018-12-30T00:48:39.289Z,99323.16
2018-12-30T00:51:16.842Z,99317.95
2018-12-30T00:54:01.333Z,99320.97
2018-12-30T00:56:51.022Z,99333.38
2018-12-30T00:59:42.920Z,99324.31
2018-12-30T01:02:14.778Z,99334.67
2018-12-30T01:05:04.388Z,99342.12
2018-12-30T01:10:30.708Z,99329.87
2018-12-30T01:13:20.019Z,99346.75
2018-12-30T01:16:09.390Z,99351.05
2018-12-30T01:18:39.610Z,99347.59
2018-12-30T01:21:13.808Z,99337.22
2018-12-30T01:26:27.167Z,99342.48
2018-12-30T01:28:57.480Z,99355.82
2018-12-30T01:31:48.366Z,99357.56
2018-12-30T01:34:37.777Z,99358.42
2018-12-30T01:37:26.943Z,99357.12
2018-12-30T01:39:58.629Z,99365.72
2018-12-30T01:42:28.848Z,99368.32
2018-12-30T01:45:19.119Z,99373.86
2018-12-30T01:48:01.386Z,99373.86
2018-12-30T01:50:21.737Z,99375.74
2018-12-30T01:53:11.109Z,99371.50
2018-12-30T01:56:00.479Z,99357.98
2018-12-30T01:58:30.717Z,99380.08
2018-12-30T02:01:01.197Z,99375.74
2018-12-30T02:03:52.857Z,99372.42
2018-12-30T02:06:42.528Z,99372.80
2018-12-30T02:09:15.670Z,99383.19
2018-12-30T02:11:48.919Z,99378.55
2018-12-30T02:14:38.463Z,99378.55
2018-12-30T02:17:12.808Z,99383.67
2018-12-30T02:19:43.208Z,99382.81
2018-12-30T02:22:13.700Z,99393.58
2018-12-30T02:25:03.957Z,99406.17
2018-12-30T02:27:48.283Z,99414.34
2018-12-30T02:30:20.822Z,99416.86
2018-12-30T02:33:10.380Z,99422.55
2018-12-30T02:35:40.783Z,99414.69
2018-12-30T02:38:11.337Z,99411.62
2018-12-30T02:40:42.219Z,99428.44
2018-12-30T02:43:32.407Z,99417.79
2018-12-30T02:46:06.213Z,99418.18
2018-12-30T02:48:38.684Z,99423.86
2018-12-30T02:51:29.111Z,99433.88
2018-12-30T02:54:42.012Z,99430.17
2018-12-30T02:57:33.586Z,99422.36
2018-12-30T03:00:22.987Z,99425.40
2018-12-30T03:03:13.466Z,99424.45
2018-12-30T03:05:46.755Z,99428.28
2018-12-30T03:08:36.167Z,99419.11
2018-12-30T03:11:06.528Z,99423.95
2018-12-30T03:13:56.137Z,99432.62
2018-12-30T03:16:47.002Z,99433.47
2018-12-30T03:19:37.611Z,99429.66
2018-12-30T03:22:26.897Z,99436.95
2018-12-30T03:24:57.447Z,99437.89
2018-12-30T03:27:39.600Z,99437.09
2018-12-30T03:30:10.828Z,99437.89
2018-12-30T03:32:41.006Z,99434.00
2018-12-30T03:35:30.549Z,99428.55
2018-12-30T03:38:19.887Z,99431.52
2018-12-30T03:44:03.123Z,99426.83
2018-12-30T03:47:11.666Z,99436.97
2018-12-30T03:50:01.013Z,99445.08
2018-12-30T03:52:54.808Z,99446.02
2018-12-30T03:55:26.895Z,99452.48
2018-12-30T03:58:16.877Z,99444.14
2018-12-30T04:01:07.409Z,99439.02
2018-12-30T04:03:58.205Z,99436.90
2018-12-30T04:09:44.166Z,99433.45
2018-12-30T04:12:38.559Z,99429.55
2018-12-30T04:15:09.038Z,99434.91
2018-12-30T04:17:40.238Z,99441.96
2018-12-30T04:20:10.893Z,99434.55
2018-12-30T04:22:41.151Z,99446.16
2018-12-30T04:25:30.447Z,99452.47
2018-12-30T04:28:01.218Z,99460.40
2018-12-30T04:30:32.031Z,99454.26
2018-12-30T04:33:24.918Z,99451.17
2018-12-30T04:36:17.249Z,99456.34
2018-12-30T04:41:48.377Z,99467.48
2018-12-30T04:44:37.941Z,99466.20
2018-12-30T04:47:08.380Z,99474.34
2018-12-30T04:49:57.957Z,99470.45
2018-12-30T04:52:47.597Z,99469.57
2018-12-30T04:55:18.184Z,99470.59
2018-12-30T04:58:07.979Z,99469.73
2018-12-30T05:00:41.199Z,99468.73
2018-12-30T05:03:30.775Z,99468.71
2018-12-30T05:06:20.088Z,99468.34
2018-12-30T05:08:50.818Z,99480.41
2018-12-30T05:14:38.936Z,99459.23
2018-12-30T05:17:09.247Z,99483.53
2018-12-30T05:19:42.136Z,99488.22
2018-12-30T05:22:12.917Z,99482.16
2018-12-30T05:24:43.575Z,99484.83
2018-12-30T05:27:14.347Z,99490.30
2018-12-30T05:30:05.843Z,99489.38
2018-12-30T05:32:56.334Z,99487.27
2018-12-30T05:41:44.389Z,99508.34
2018-12-30T05:47:30.458Z,99507.47
2018-12-30T05:50:00.725Z,99527.44
2018-12-30T05:52:50.230Z,99528.94
2018-12-30T05:55:20.767Z,99538.52
2018-12-30T05:57:51.160Z,99541.48
2018-12-30T06:00:41.024Z,99539.62
2018-12-30T06:03:30.824Z,99539.08
2018-12-30T06:06:23.144Z,99536.94
2018-12-30T06:08:55.235Z,99540.33
2018-12-30T06:11:26.067Z,99562.34
2018-12-30T06:14:15.435Z,99562.03
2018-12-30T06:17:06.604Z,99580.24
2018-12-30T06:19:42.936Z,99430.83
2018-12-30T06:22:33.561Z,99572.30
2018-12-30T06:25:23.727Z,99584.06
2018-12-30T06:27:58.232Z,99587.03
2018-12-30T06:30:32.964Z,99582.36
2018-12-30T06:33:06.992Z,99593.47
2018-12-30T06:35:39.846Z,99598.31
2018-12-30T06:38:16.094Z,99601.64
2018-12-30T06:40:48.384Z,99613.97
2018-12-30T06:43:21.604Z,99621.41
2018-12-30T06:45:52.835Z,99622.20
2018-12-30T06:48:24.195Z,99630.05
2018-12-30T06:51:16.731Z,99627.95
2018-12-30T06:53:48.134Z,99634.40
2018-12-30T06:56:58.994Z,99634.48
2018-12-30T06:59:49.394Z,99647.87
2018-12-30T07:02:20.181Z,99645.38
2018-12-30T07:05:10.031Z,99639.20
2018-12-30T07:07:41.680Z,99644.07
2018-12-30T07:13:27.242Z,99651.47
2018-12-30T07:15:58.736Z,99665.04
2018-12-30T07:18:48.052Z,99667.58
2018-12-30T07:21:39.091Z,99663.68
2018-12-30T07:24:29.586Z,99668.61
2018-12-30T07:32:35.866Z,99693.44
2018-12-30T07:35:19.564Z,99692.92
2018-12-30T07:38:01.135Z,99696.33
2018-12-30T07:40:41.667Z,99703.73
2018-12-30T07:43:12.190Z,99698.53
2018-12-30T07:46:02.176Z,99702.34
2018-12-30T07:48:32.705Z,99701.04
2018-12-30T07:51:03.354Z,99705.48
2018-12-30T07:53:53.438Z,99711.94
2018-12-30T07:56:23.869Z,99714.52
2018-12-30T07:59:13.187Z,99710.08
2018-12-30T08:01:44.803Z,99710.58
2018-12-30T08:04:16.836Z,99715.16
2018-12-30T08:07:09.705Z,99721.41
2018-12-30T08:09:59.410Z,99720.23
2018-12-30T08:12:29.895Z,99719.06
2018-12-30T08:15:01.078Z,99714.72
2018-12-30T08:17:51.795Z,99725.08
2018-12-30T08:20:44.603Z,99715.09
2018-12-30T08:23:34.683Z,99708.23
2018-12-30T08:26:23.987Z,99703.83
2018-12-30T08:31:30.155Z,99704.20
2018-12-30T08:34:12.445Z,99714.28
2018-12-30T08:36:54.276Z,99711.69
2018-12-30T08:39:34.877Z,99709.28
2018-12-30T08:42:26.472Z,99723.84
2018-12-30T08:44:56.741Z,99713.39
2018-12-30T08:47:47.953Z,99717.22
2018-12-30T08:50:19.394Z,99715.97
2018-12-30T08:52:50.640Z,99724.28
2018-12-30T08:55:42.181Z,99720.25
2018-12-30T08:58:32.567Z,99729.28
2018-12-30T09:01:28.488Z,99734.06
2018-12-30T09:04:15.805Z,99740.33
2018-12-30T09:07:06.564Z,99740.31
2018-12-30T09:09:37.973Z,99756.67
2018-12-30T09:12:09.970Z,99761.73
2018-12-30T09:14:59.335Z,99763.98
2018-12-30T09:17:30.494Z,99766.39
2018-12-30T09:20:01.986Z,99774.20
2018-12-30T09:22:33.585Z,99787.16
2018-12-30T09:28:02.905Z,99783.30
2018-12-30T09:30:34.686Z,99784.66
2018-12-30T09:33:27.485Z,99786.45
2018-12-30T09:36:10.499Z,99802.82
2018-12-30T09:39:00.600Z,99802.33
2018-12-30T09:41:34.885Z,99797.61
2018-12-30T09:47:19.967Z,99788.98
2018-12-30T09:55:28.445Z,99805.99
2018-12-30T09:58:01.654Z,99805.57
2018-12-30T10:00:54.898Z,99807.09
2018-12-30T10:03:46.933Z,99804.27
2018-12-30T10:06:19.246Z,99806.95
2018-12-30T10:08:50.095Z,99803.90
2018-12-30T10:11:42.196Z,99806.88
2018-12-30T10:14:40.465Z,99813.31
2018-12-30T10:17:33.695Z,99714.77
2018-12-30T10:22:58.788Z,99818.62
2018-12-30T10:25:27.124Z,99815.01
2018-12-30T10:28:11.268Z,99819.69
2018-12-30T10:30:34.497Z,99821.52
2018-12-30T10:33:05.181Z,99821.64
2018-12-30T10:35:37.703Z,99822.18
2018-12-30T10:41:09.340Z,99817.38
2018-12-30T10:43:42.705Z,99815.61
2018-12-30T10:46:13.084Z,99803.95
2018-12-30T10:49:03.154Z,99815.30
2018-12-30T10:51:36.311Z,99807.72
2018-12-30T10:54:06.767Z,99813.73
2018-12-30T10:56:37.582Z,99804.69
2018-12-30T10:59:30.544Z,99804.55
2018-12-30T11:02:02.663Z,99804.55
2018-12-30T11:04:52.618Z,99807.02
2018-12-30T11:07:42.573Z,99790.20
2018-12-30T11:10:19.762Z,99812.63
2018-12-30T11:12:52.005Z,99812.69
2018-12-30T11:15:32.773Z,99807.06
2018-12-30T11:18:06.475Z,99810.90
2018-12-30T11:20:39.731Z,99814.12
2018-12-30T11:23:10.291Z,99800.18
2018-12-30T11:25:40.844Z,99793.25
2018-12-30T11:28:11.299Z,99778.57
2018-12-30T11:30:44.753Z,99771.53
2018-12-30T11:33:15.791Z,99776.67
2018-12-30T11:35:47.044Z,99782.95
2018-12-30T11:38:17.402Z,99785.57
2018-12-30T11:40:48.967Z,99770.16
2018-12-30T11:43:38.712Z,99775.51
2018-12-30T11:46:09.106Z,99611.55
2018-12-30T11:48:40.111Z,99769.88
2018-12-30T11:51:10.440Z,99762.49
2018-12-30T11:57:22.671Z,99777.39
2018-12-30T12:00:16.266Z,99780.87
2018-12-30T12:02:47.540Z,99785.57
2018-12-30T12:05:37.333Z,99792.52
2018-12-30T12:08:30.693Z,99798.96
2018-12-30T12:11:03.706Z,99795.91
2018-12-30T12:13:35.338Z,99798.33
2018-12-30T12:16:09.437Z,99801.07
2018-12-30T12:21:18.601Z,99797.16
2018-12-30T12:23:50.797Z,99807.88
2018-12-30T12:26:41.187Z,99803.91
2018-12-30T12:32:53.887Z,99807.02
2018-12-30T12:35:31.377Z,99794.07
2018-12-30T12:38:16.152Z,99799.34
2018-12-30T12:43:43.632Z,99793.27
2018-12-30T12:46:35.101Z,99792.34
2018-12-30T12:52:00.003Z,99787.56
2018-12-30T12:54:32.286Z,99780.55
2018-12-30T12:59:41.700Z,99789.61
2018-12-30T13:02:13.220Z,99787.78
2018-12-30T13:04:49.380Z,99789.29
2018-12-30T13:07:21.098Z,99788.88
2018-12-30T13:09:51.732Z,99799.47
2018-12-30T13:12:24.309Z,99801.59
2018-12-30T13:14:54.617Z,99795.15
2018-12-30T13:18:05.639Z,99791.17
2018-12-30T13:20:36.603Z,99722.80
2018-12-30T13:23:31.108Z,99796.98
2018-12-30T13:29:36.612Z,99809.09
2018-12-30T13:35:43.283Z,99799.84
2018-12-30T13:38:10.970Z,99798.61
2018-12-30T13:40:44.329Z,99800.34
2018-12-30T13:43:16.720Z,99795.14
2018-12-30T13:45:47.736Z,99798.73
2018-12-30T13:48:37.275Z,99812.61
2018-12-30T13:51:11.434Z,99813.23
2018-12-30T13:53:41.911Z,99814.03
2018-12-30T13:56:18.433Z,99804.68
2018-12-30T13:59:08.651Z,99801.28
2018-12-30T14:01:39.324Z,99807.21
2018-12-30T14:04:29.266Z,99807.28
2018-12-30T14:07:20.726Z,99801.16
2018-12-30T14:10:10.658Z,99808.02
2018-12-30T14:15:57.229Z,99793.77
2018-12-30T14:18:48.910Z,99785.41
2018-12-30T14:21:23.446Z,99779.48
2018-12-30T14:23:54.109Z,99781.63
2018-12-30T14:26:45.782Z,99789.18
2018-12-30T14:29:36.596Z,99789.70
2018-12-30T14:32:13.370Z,99791.34
2018-12-30T14:34:43.780Z,99799.83
2018-12-30T14:37:16.621Z,99809.25
2018-12-30T14:39:47.865Z,99809.20
2018-12-30T14:42:22.663Z,99805.84
2018-12-30T14:44:54.898Z,99805.58
2018-12-30T14:47:25.595Z,99809.75
2018-12-30T14:50:15.885Z,99819.40
2018-12-30T14:53:06.555Z,99820.70
2018-12-30T14:58:17.420Z,99822.44
2018-12-30T15:00:51.152Z,99828.40
2018-12-30T15:06:12.912Z,99834.31
2018-12-30T15:08:44.719Z,99829.72
2018-12-30T15:11:36.852Z,99834.65
2018-12-30T15:14:08.890Z,99832.80
2018-12-30T15:16:59.669Z,99844.34
2018-12-30T15:22:44.134Z,99850.88
2018-12-30T15:25:15.610Z,99851.38
2018-12-30T15:31:00.642Z,99856.63
2018-12-30T15:33:34.039Z,99860.97
2018-12-30T15:36:04.985Z,99856.25
2018-12-30T15:38:36.511Z,99850.13
2018-12-30T15:41:08.163Z,99841.20
2018-12-30T15:43:39.127Z,99853.27
2018-12-30T15:46:10.467Z,99845.03
2018-12-30T15:48:41.314Z,99845.53
2018-12-30T15:51:12.415Z,99836.76
2018-12-30T15:53:45.349Z,99837.78
2018-12-30T15:56:19.008Z,99846.83
2018-12-30T15:58:49.900Z,99844.86
2018-12-30T16:01:39.824Z,99841.48
2018-12-30T16:04:11.047Z,99844.03
2018-12-30T16:06:42.930Z,99849.72
2018-12-30T16:09:14.321Z,99860.11
2018-12-30T16:14:58.428Z,99873.43
2018-12-30T16:17:33.628Z,99884.52
2018-12-30T16:20:06.965Z,99888.98
2018-12-30T16:22:37.735Z,99884.36
2018-12-30T16:25:27.645Z,99872.62
2018-12-30T16:27:59.986Z,99866.17
2018-12-30T16:30:50.616Z,99859.14
2018-12-30T16:33:42.981Z,99855.05
2018-12-30T16:36:13.388Z,99856.13
2018-12-30T16:38:46.010Z,99864.87
2018-12-30T16:41:16.895Z,99865.55
2018-12-30T16:44:06.569Z,99856.16
2018-12-30T16:46:48.603Z,99784.91
2018-12-30T16:49:30.529Z,99848.75
2018-12-30T16:52:01.480Z,99849.80
2018-12-30T16:54:51.196Z,99839.46
2018-12-30T16:57:21.643Z,99835.77
2018-12-30T16:59:52.466Z,99830.19
2018-12-30T17:02:44.101Z,99829.90
2018-12-30T17:11:33.365Z,99819.94
2018-12-30T17:14:04.046Z,99826.95
2018-12-30T17:16:53.675Z,99837.79
2018-12-30T17:19:24.266Z,99839.17
2018-12-30T17:22:14.257Z,99837.41
2018-12-30T17:24:47.289Z,99832.30
2018-12-30T17:27:37.307Z,99840.56
2018-12-30T17:30:09.585Z,99840.90
2018-12-30T17:32:59.373Z,99837.45
2018-12-30T17:35:48.960Z,99844.50
2018-12-30T17:39:00.677Z,99845.23
2018-12-30T17:41:34.117Z,99853.08
2018-12-30T17:47:11.455Z,99854.76
2018-12-30T17:49:53.481Z,99845.89
2018-12-30T17:52:34.680Z,99833.91
2018-12-30T17:58:00.336Z,99847.05
2018-12-30T18:00:30.904Z,99847.23
2018-12-30T18:03:20.618Z,99836.59
2018-12-30T18:06:10.704Z,99835.30
2018-12-30T18:08:43.613Z,99843.91
2018-12-30T18:11:15.288Z,99851.61
2018-12-30T18:14:04.604Z,99854.98
2018-12-30T18:16:53.945Z,99852.47
2018-12-30T18:19:26.500Z,99854.59
2018-12-30T18:21:56.779Z,99846.59
2018-12-30T18:24:28.393Z,99849.13
2018-12-30T18:27:17.936Z,99853.77
2018-12-30T18:35:47.415Z,99855.03
2018-12-30T18:38:36.757Z,99854.68
2018-12-30T18:41:26.436Z,99850.78
2018-12-30T18:44:16.927Z,99847.28
2018-12-30T18:49:27.328Z,99827.72
2018-12-30T18:52:17.023Z,99826.33
2018-12-30T18:55:08.035Z,99824.60
2018-12-30T19:00:34.957Z,99845.45
2018-12-30T19:03:28.657Z,99847.97
2018-12-30T19:05:59.837Z,99842.00
2018-12-30T19:08:31.558Z,99843.73
2018-12-30T19:11:02.748Z,99855.28
2018-12-30T19:13:34.377Z,99845.72
2018-12-30T19:16:24.568Z,99844.41
2018-12-30T19:18:54.866Z,99838.75
2018-12-30T19:21:26.736Z,99839.17
2018-12-30T19:23:58.021Z,99832.73
2018-12-30T19:26:28.333Z,99833.77
2018-12-30T19:29:17.780Z,99834.20
2018-12-30T19:32:07.577Z,99835.03
2018-12-30T19:34:38.203Z,99826.32
2018-12-30T19:37:09.304Z,99821.31
2018-12-30T19:39:39.767Z,99827.85
2018-12-30T19:42:12.515Z,99831.83
2018-12-30T19:44:42.843Z,99825.38
2018-12-30T19:47:13.981Z,99825.30
2018-12-30T19:49:45.153Z,99825.42
2018-12-30T19:52:35.135Z,99831.05
2018-12-30T19:55:06.456Z,99685.20
2018-12-30T19:57:37.004Z,99818.11
2018-12-30T20:00:27.227Z,99817.25
2018-12-30T20:02:57.813Z,99813.35
2018-12-30T20:05:28.315Z,99810.41
2018-12-30T20:10:35.650Z,99823.78
2018-12-30T20:13:09.196Z,99834.59
2018-12-30T20:15:39.667Z,99837.07
2018-12-30T20:18:10.828Z,99827.11
2018-12-30T20:20:41.403Z,99834.16
2018-12-30T20:23:13.452Z,99833.37
2018-12-30T20:26:03.510Z,99825.16
2018-12-30T20:28:53.004Z,99824.77
2018-12-30T20:34:19.166Z,99821.83
2018-12-30T20:39:48.720Z,99819.50
2018-12-30T20:42:38.924Z,99824.89
2018-12-30T20:45:29.611Z,99817.15
2018-12-30T20:48:00.742Z,99819.27
2018-12-30T20:50:31.826Z,99817.27
2018-12-30T20:53:21.203Z,99811.64
2018-12-30T20:55:51.533Z,99814.31
2018-12-30T20:58:40.891Z,99814.31
2018-12-30T21:01:12.371Z,99815.25
2018-12-30T21:04:02.139Z,99816.59
2018-12-30T21:09:30.220Z,99805.86
2018-12-30T21:12:02.133Z,99805.93
2018-12-30T21:14:32.516Z,99801.25
2018-12-30T21:17:23.338Z,99792.20
2018-12-30T21:23:02.962Z,99787.09
2018-12-30T21:26:12.210Z,99789.11
2018-12-30T21:28:45.375Z,99794.34
2018-12-30T21:31:17.348Z,99797.36
2018-12-30T21:33:47.791Z,99790.45
2018-12-30T21:36:18.132Z,99793.11
2018-12-30T21:38:48.491Z,99794.87
2018-12-30T21:44:22.661Z,99792.21
2018-12-30T21:47:12.785Z,99783.21
2018-12-30T21:49:43.335Z,99784.94
2018-12-30T21:52:26.297Z,99779.83
2018-12-30T21:55:09.266Z,99781.45
2018-12-30T22:01:17.926Z,99775.00
2018-12-30T22:04:08.785Z,99771.18
2018-12-30T22:06:59.591Z,99773.31
2018-12-30T22:09:52.183Z,99776.00
2018-12-30T22:12:29.314Z,99770.72
2018-12-30T22:14:59.775Z,99769.52
2018-12-30T22:17:49.632Z,99773.34
2018-12-30T22:20:29.502Z,99606.95
2018-12-30T22:23:02.894Z,99769.89
2018-12-30T22:25:34.829Z,99765.56
2018-12-30T22:31:20.784Z,99756.02
2018-12-30T22:34:12.161Z,99755.13
2018-12-30T22:36:42.797Z,99753.90
2018-12-30T22:39:13.324Z,99746.02
2018-12-30T22:42:03.436Z,99750.33
2018-12-30T22:44:34.893Z,99755.98
2018-12-30T22:47:05.595Z,99749.97
2018-12-30T22:49:36.185Z,99762.07
2018-12-30T22:52:06.793Z,99756.45
2018-12-30T22:54:37.418Z,99753.00
2018-12-30T22:57:27.820Z,99757.72
2018-12-30T22:59:58.732Z,99584.35
2018-12-30T23:02:48.854Z,99746.37
2018-12-30T23:05:20.254Z,99739.45
2018-12-30T23:07:50.829Z,99740.66
2018-12-30T23:13:35.307Z,99686.06
2018-12-30T23:16:25.060Z,99741.92
2018-12-30T23:18:55.878Z,99734.93
2018-12-30T23:21:45.644Z,99735.88
2018-12-30T23:24:35.182Z,99744.02
2018-12-30T23:27:26.190Z,99729.86
2018-12-30T23:29:59.432Z,99731.52
2018-12-30T23:32:49.451Z,99741.45
2018-12-30T23:35:20.113Z,99740.00
2018-12-30T23:43:49.387Z,99738.26
2018-12-30T23:46:39.178Z,99748.80
2018-12-30T23:49:29.858Z,99748.84
2018-12-30T23:52:00.441Z,99751.47
2018-12-30T23:54:31.261Z,99748.48
2018-12-30T23:57:02.131Z,99742.05
